sensor_id;sensor_type;location;lat;lon;timestamp;P1;durP1;ratioP1;P2;durP2;ratioP2
77520;SDS011;66633;47.628;19.158;2023-02-12T00:01:31;23.55;;;12.05;;
77520;SDS011;66633;47.628;19.158;2023-02-12T00:03:59;27.45;;;13.50;;
77520;SDS011;66633;47.628;19.158;2023-02-12T00:06:24;26.67;;;13.40;;
77520;SDS011;66633;47.628;19.158;2023-02-12T00:08:50;26.33;;;13.23;;
77520;SDS011;66633;47.628;19.158;2023-02-12T00:11:17;26.90;;;13.27;;
77520;SDS011;66633;47.628;19.158;2023-02-12T00:13:42;24.42;;;12.35;;
77520;SDS011;66633;47.628;19.158;2023-02-12T00:16:08;26.63;;;13.38;;
77520;SDS011;66633;47.628;19.158;2023-02-12T00:18:34;23.23;;;12.38;;
77520;SDS011;66633;47.628;19.158;2023-02-12T00:21:00;23.33;;;13.18;;
77520;SDS011;66633;47.628;19.158;2023-02-12T00:23:26;25.77;;;13.02;;
77520;SDS011;66633;47.628;19.158;2023-02-12T00:25:51;25.60;;;11.90;;
77520;SDS011;66633;47.628;19.158;2023-02-12T00:28:16;26.83;;;13.18;;
77520;SDS011;66633;47.628;19.158;2023-02-12T00:30:42;25.95;;;13.90;;
77520;SDS011;66633;47.628;19.158;2023-02-12T00:33:07;27.90;;;13.77;;
77520;SDS011;66633;47.628;19.158;2023-02-12T00:35:32;26.92;;;13.00;;
77520;SDS011;66633;47.628;19.158;2023-02-12T00:37:58;26.92;;;14.32;;
77520;SDS011;66633;47.628;19.158;2023-02-12T00:40:23;26.67;;;13.10;;
77520;SDS011;66633;47.628;19.158;2023-02-12T00:42:48;24.17;;;13.10;;
77520;SDS011;66633;47.628;19.158;2023-02-12T00:45:13;27.93;;;13.47;;
77520;SDS011;66633;47.628;19.158;2023-02-12T00:47:39;27.33;;;13.77;;
77520;SDS011;66633;47.628;19.158;2023-02-12T00:50:04;24.93;;;13.07;;
77520;SDS011;66633;47.628;19.158;2023-02-12T00:52:30;25.65;;;13.02;;
77520;SDS011;66633;47.628;19.158;2023-02-12T00:54:55;30.00;;;14.20;;
77520;SDS011;66633;47.628;19.158;2023-02-12T00:57:20;26.92;;;13.90;;
77520;SDS011;66633;47.628;19.158;2023-02-12T00:59:45;25.03;;;11.93;;
77520;SDS011;66633;47.628;19.158;2023-02-12T01:02:11;25.45;;;13.60;;
77520;SDS011;66633;47.628;19.158;2023-02-12T01:04:37;24.50;;;12.38;;
77520;SDS011;66633;47.628;19.158;2023-02-12T01:07:02;27.37;;;12.43;;
77520;SDS011;66633;47.628;19.158;2023-02-12T01:09:27;25.10;;;12.70;;
77520;SDS011;66633;47.628;19.158;2023-02-12T01:11:53;27.97;;;13.47;;
77520;SDS011;66633;47.628;19.158;2023-02-12T01:14:18;29.23;;;13.43;;
77520;SDS011;66633;47.628;19.158;2023-02-12T01:16:43;25.30;;;13.03;;
77520;SDS011;66633;47.628;19.158;2023-02-12T01:19:08;24.35;;;13.82;;
77520;SDS011;66633;47.628;19.158;2023-02-12T01:21:34;21.77;;;11.48;;
77520;SDS011;66633;47.628;19.158;2023-02-12T01:24:00;25.67;;;12.43;;
77520;SDS011;66633;47.628;19.158;2023-02-12T01:26:26;23.95;;;12.30;;
77520;SDS011;66633;47.628;19.158;2023-02-12T01:28:52;23.73;;;11.95;;
77520;SDS011;66633;47.628;19.158;2023-02-12T01:31:20;24.77;;;12.38;;
77520;SDS011;66633;47.628;19.158;2023-02-12T01:33:48;24.23;;;12.32;;
77520;SDS011;66633;47.628;19.158;2023-02-12T01:36:14;22.88;;;11.30;;
77520;SDS011;66633;47.628;19.158;2023-02-12T01:38:40;24.90;;;12.48;;
77520;SDS011;66633;47.628;19.158;2023-02-12T01:41:06;21.25;;;10.70;;
77520;SDS011;66633;47.628;19.158;2023-02-12T01:43:32;24.20;;;12.00;;
77520;SDS011;66633;47.628;19.158;2023-02-12T01:45:58;21.35;;;11.05;;
77520;SDS011;66633;47.628;19.158;2023-02-12T01:48:24;26.13;;;12.02;;
77520;SDS011;66633;47.628;19.158;2023-02-12T01:50:51;23.13;;;11.90;;
77520;SDS011;66633;47.628;19.158;2023-02-12T01:53:17;23.60;;;11.88;;
77520;SDS011;66633;47.628;19.158;2023-02-12T01:55:45;22.70;;;10.57;;
77520;SDS011;66633;47.628;19.158;2023-02-12T01:58:10;19.88;;;10.20;;
77520;SDS011;66633;47.628;19.158;2023-02-12T02:00:36;19.65;;;10.35;;
77520;SDS011;66633;47.628;19.158;2023-02-12T02:03:01;19.25;;;10.23;;
77520;SDS011;66633;47.628;19.158;2023-02-12T02:05:30;19.25;;;9.88;;
77520;SDS011;66633;47.628;19.158;2023-02-12T02:10:22;21.63;;;10.73;;
77520;SDS011;66633;47.628;19.158;2023-02-12T02:12:47;15.95;;;8.05;;
77520;SDS011;66633;47.628;19.158;2023-02-12T02:15:31;23.38;;;11.00;;
77520;SDS011;66633;47.628;19.158;2023-02-12T02:18:01;18.23;;;9.85;;
77520;SDS011;66633;47.628;19.158;2023-02-12T02:20:41;20.55;;;10.75;;
77520;SDS011;66633;47.628;19.158;2023-02-12T02:23:51;17.83;;;9.52;;
77520;SDS011;66633;47.628;19.158;2023-02-12T02:28:46;13.68;;;5.93;;
77520;SDS011;66633;47.628;19.158;2023-02-12T02:38:54;22.63;;;11.17;;
77520;SDS011;66633;47.628;19.158;2023-02-12T02:43:48;15.13;;;7.53;;
77520;SDS011;66633;47.628;19.158;2023-02-12T02:46:23;19.55;;;9.15;;
77520;SDS011;66633;47.628;19.158;2023-02-12T02:48:55;17.80;;;8.35;;
77520;SDS011;66633;47.628;19.158;2023-02-12T02:51:27;26.27;;;12.20;;
77520;SDS011;66633;47.628;19.158;2023-02-12T02:53:56;26.63;;;12.70;;
77520;SDS011;66633;47.628;19.158;2023-02-12T02:56:22;22.13;;;11.10;;
77520;SDS011;66633;47.628;19.158;2023-02-12T02:58:50;20.50;;;10.18;;
77520;SDS011;66633;47.628;19.158;2023-02-12T03:01:24;18.67;;;9.80;;
77520;SDS011;66633;47.628;19.158;2023-02-12T03:03:52;16.13;;;8.48;;
77520;SDS011;66633;47.628;19.158;2023-02-12T03:06:24;16.67;;;7.55;;
77520;SDS011;66633;47.628;19.158;2023-02-12T03:08:57;14.52;;;6.50;;
77520;SDS011;66633;47.628;19.158;2023-02-12T03:11:25;10.23;;;4.88;;
77520;SDS011;66633;47.628;19.158;2023-02-12T03:14:12;13.75;;;6.55;;
77520;SDS011;66633;47.628;19.158;2023-02-12T03:16:45;16.23;;;7.15;;
77520;SDS011;66633;47.628;19.158;2023-02-12T03:19:15;11.73;;;5.47;;
77520;SDS011;66633;47.628;19.158;2023-02-12T03:24:15;12.30;;;5.78;;
77520;SDS011;66633;47.628;19.158;2023-02-12T03:26:45;13.32;;;6.72;;
77520;SDS011;66633;47.628;19.158;2023-02-12T03:29:11;11.27;;;5.38;;
77520;SDS011;66633;47.628;19.158;2023-02-12T03:31:40;15.73;;;5.57;;
77520;SDS011;66633;47.628;19.158;2023-02-12T03:37:17;15.13;;;6.95;;
77520;SDS011;66633;47.628;19.158;2023-02-12T03:42:13;12.73;;;5.73;;
77520;SDS011;66633;47.628;19.158;2023-02-12T03:52:16;15.97;;;7.10;;
77520;SDS011;66633;47.628;19.158;2023-02-12T03:54:42;12.82;;;5.65;;
77520;SDS011;66633;47.628;19.158;2023-02-12T03:57:08;8.93;;;3.67;;
77520;SDS011;66633;47.628;19.158;2023-02-12T03:59:35;12.30;;;5.30;;
77520;SDS011;66633;47.628;19.158;2023-02-12T04:02:01;12.93;;;5.72;;
77520;SDS011;66633;47.628;19.158;2023-02-12T04:04:27;12.82;;;6.07;;
77520;SDS011;66633;47.628;19.158;2023-02-12T04:06:52;14.07;;;5.90;;
77520;SDS011;66633;47.628;19.158;2023-02-12T04:09:18;16.08;;;6.93;;
77520;SDS011;66633;47.628;19.158;2023-02-12T04:17:44;17.42;;;8.55;;
77520;SDS011;66633;47.628;19.158;2023-02-12T04:22:15;18.70;;;9.00;;
77520;SDS011;66633;47.628;19.158;2023-02-12T04:24:49;13.38;;;6.90;;
77520;SDS011;66633;47.628;19.158;2023-02-12T04:32:45;18.58;;;8.13;;
77520;SDS011;66633;47.628;19.158;2023-02-12T04:40:04;21.50;;;10.07;;
77520;SDS011;66633;47.628;19.158;2023-02-12T04:42:30;24.95;;;11.38;;
77520;SDS011;66633;47.628;19.158;2023-02-12T04:44:55;15.52;;;6.63;;
77520;SDS011;66633;47.628;19.158;2023-02-12T04:47:20;15.80;;;6.83;;
77520;SDS011;66633;47.628;19.158;2023-02-12T04:49:45;15.40;;;7.60;;
77520;SDS011;66633;47.628;19.158;2023-02-12T04:52:11;23.53;;;12.50;;
77520;SDS011;66633;47.628;19.158;2023-02-12T04:54:36;18.53;;;8.13;;
77520;SDS011;66633;47.628;19.158;2023-02-12T04:57:01;21.67;;;10.63;;
77520;SDS011;66633;47.628;19.158;2023-02-12T04:59:27;19.17;;;9.43;;
77520;SDS011;66633;47.628;19.158;2023-02-12T05:01:52;23.70;;;11.70;;
77520;SDS011;66633;47.628;19.158;2023-02-12T05:04:18;22.17;;;11.97;;
77520;SDS011;66633;47.628;19.158;2023-02-12T05:06:43;18.13;;;7.93;;
77520;SDS011;66633;47.628;19.158;2023-02-12T05:09:12;19.33;;;9.55;;
77520;SDS011;66633;47.628;19.158;2023-02-12T05:11:38;16.30;;;8.10;;
77520;SDS011;66633;47.628;19.158;2023-02-12T05:14:03;22.83;;;11.17;;
77520;SDS011;66633;47.628;19.158;2023-02-12T05:16:28;22.97;;;10.10;;
77520;SDS011;66633;47.628;19.158;2023-02-12T05:18:54;26.83;;;11.35;;
77520;SDS011;66633;47.628;19.158;2023-02-12T05:21:19;25.47;;;11.13;;
77520;SDS011;66633;47.628;19.158;2023-02-12T05:23:44;21.23;;;9.13;;
77520;SDS011;66633;47.628;19.158;2023-02-12T05:26:11;27.80;;;13.53;;
77520;SDS011;66633;47.628;19.158;2023-02-12T05:28:37;17.77;;;7.47;;
77520;SDS011;66633;47.628;19.158;2023-02-12T05:31:03;16.52;;;7.38;;
77520;SDS011;66633;47.628;19.158;2023-02-12T05:33:29;22.08;;;11.05;;
77520;SDS011;66633;47.628;19.158;2023-02-12T05:35:54;18.70;;;9.38;;
77520;SDS011;66633;47.628;19.158;2023-02-12T05:38:20;21.15;;;9.85;;
77520;SDS011;66633;47.628;19.158;2023-02-12T05:40:45;20.23;;;9.80;;
77520;SDS011;66633;47.628;19.158;2023-02-12T05:43:10;22.27;;;11.00;;
77520;SDS011;66633;47.628;19.158;2023-02-12T05:45:36;15.07;;;8.17;;
77520;SDS011;66633;47.628;19.158;2023-02-12T05:48:02;16.35;;;6.97;;
77520;SDS011;66633;47.628;19.158;2023-02-12T05:50:27;21.10;;;9.60;;
77520;SDS011;66633;47.628;19.158;2023-02-12T05:52:53;16.67;;;8.07;;
77520;SDS011;66633;47.628;19.158;2023-02-12T05:55:18;18.30;;;7.73;;
77520;SDS011;66633;47.628;19.158;2023-02-12T05:57:43;18.03;;;7.00;;
77520;SDS011;66633;47.628;19.158;2023-02-12T06:00:08;17.00;;;7.47;;
77520;SDS011;66633;47.628;19.158;2023-02-12T06:02:34;16.55;;;7.53;;
77520;SDS011;66633;47.628;19.158;2023-02-12T06:04:59;17.30;;;7.37;;
77520;SDS011;66633;47.628;19.158;2023-02-12T06:07:24;18.67;;;8.00;;
77520;SDS011;66633;47.628;19.158;2023-02-12T06:09:50;15.87;;;7.37;;
77520;SDS011;66633;47.628;19.158;2023-02-12T06:12:15;17.05;;;7.43;;
77520;SDS011;66633;47.628;19.158;2023-02-12T06:14:40;15.70;;;6.17;;
77520;SDS011;66633;47.628;19.158;2023-02-12T06:17:06;16.55;;;7.70;;
77520;SDS011;66633;47.628;19.158;2023-02-12T06:19:31;13.00;;;6.07;;
77520;SDS011;66633;47.628;19.158;2023-02-12T06:21:56;12.37;;;5.20;;
77520;SDS011;66633;47.628;19.158;2023-02-12T06:24:21;12.47;;;5.63;;
77520;SDS011;66633;47.628;19.158;2023-02-12T06:26:50;23.33;;;11.98;;
77520;SDS011;66633;47.628;19.158;2023-02-12T06:29:16;20.90;;;9.52;;
77520;SDS011;66633;47.628;19.158;2023-02-12T06:31:42;22.50;;;9.13;;
77520;SDS011;66633;47.628;19.158;2023-02-12T06:34:08;40.28;;;17.92;;
77520;SDS011;66633;47.628;19.158;2023-02-12T06:36:38;23.80;;;9.90;;
77520;SDS011;66633;47.628;19.158;2023-02-12T06:39:04;43.38;;;20.60;;
77520;SDS011;66633;47.628;19.158;2023-02-12T06:41:29;30.52;;;17.90;;
77520;SDS011;66633;47.628;19.158;2023-02-12T06:43:55;30.25;;;16.30;;
77520;SDS011;66633;47.628;19.158;2023-02-12T06:46:20;27.95;;;15.63;;
77520;SDS011;66633;47.628;19.158;2023-02-12T06:48:45;32.93;;;19.13;;
77520;SDS011;66633;47.628;19.158;2023-02-12T06:51:15;91.03;;;49.65;;
77520;SDS011;66633;47.628;19.158;2023-02-12T06:53:41;40.42;;;25.30;;
77520;SDS011;66633;47.628;19.158;2023-02-12T06:56:07;49.78;;;24.77;;
77520;SDS011;66633;47.628;19.158;2023-02-12T06:58:35;27.50;;;15.93;;
77520;SDS011;66633;47.628;19.158;2023-02-12T07:03:53;42.28;;;22.75;;
77520;SDS011;66633;47.628;19.158;2023-02-12T07:06:19;21.48;;;11.63;;
77520;SDS011;66633;47.628;19.158;2023-02-12T07:08:45;24.60;;;13.00;;
77520;SDS011;66633;47.628;19.158;2023-02-12T07:11:10;20.73;;;11.25;;
77520;SDS011;66633;47.628;19.158;2023-02-12T07:13:35;17.17;;;9.45;;
77520;SDS011;66633;47.628;19.158;2023-02-12T07:16:08;18.95;;;9.57;;
77520;SDS011;66633;47.628;19.158;2023-02-12T07:18:34;20.55;;;9.75;;
77520;SDS011;66633;47.628;19.158;2023-02-12T07:21:00;18.98;;;8.93;;
77520;SDS011;66633;47.628;19.158;2023-02-12T07:23:25;15.38;;;7.18;;
77520;SDS011;66633;47.628;19.158;2023-02-12T07:25:57;15.93;;;7.87;;
77520;SDS011;66633;47.628;19.158;2023-02-12T07:28:22;13.95;;;6.75;;
77520;SDS011;66633;47.628;19.158;2023-02-12T07:30:48;15.73;;;7.68;;
77520;SDS011;66633;47.628;19.158;2023-02-12T07:33:13;22.13;;;10.40;;
77520;SDS011;66633;47.628;19.158;2023-02-12T07:35:38;37.57;;;20.13;;
77520;SDS011;66633;47.628;19.158;2023-02-12T07:38:04;41.63;;;22.93;;
77520;SDS011;66633;47.628;19.158;2023-02-12T07:40:29;46.63;;;25.13;;
77520;SDS011;66633;47.628;19.158;2023-02-12T07:42:54;56.83;;;29.20;;
77520;SDS011;66633;47.628;19.158;2023-02-12T07:45:20;37.47;;;19.42;;
77520;SDS011;66633;47.628;19.158;2023-02-12T07:47:45;33.30;;;18.87;;
77520;SDS011;66633;47.628;19.158;2023-02-12T07:50:10;26.53;;;13.97;;
77520;SDS011;66633;47.628;19.158;2023-02-12T07:52:35;33.17;;;17.57;;
77520;SDS011;66633;47.628;19.158;2023-02-12T07:55:01;18.43;;;10.27;;
77520;SDS011;66633;47.628;19.158;2023-02-12T07:57:26;16.63;;;8.50;;
77520;SDS011;66633;47.628;19.158;2023-02-12T07:59:52;18.00;;;10.70;;
77520;SDS011;66633;47.628;19.158;2023-02-12T08:02:17;23.33;;;12.15;;
77520;SDS011;66633;47.628;19.158;2023-02-12T08:07:45;15.95;;;8.75;;
77520;SDS011;66633;47.628;19.158;2023-02-12T08:10:10;18.95;;;11.02;;
77520;SDS011;66633;47.628;19.158;2023-02-12T08:12:36;15.57;;;8.00;;
77520;SDS011;66633;47.628;19.158;2023-02-12T08:15:01;14.97;;;7.90;;
77520;SDS011;66633;47.628;19.158;2023-02-12T08:17:26;22.20;;;11.03;;
77520;SDS011;66633;47.628;19.158;2023-02-12T08:19:51;15.55;;;8.73;;
77520;SDS011;66633;47.628;19.158;2023-02-12T08:22:17;17.52;;;8.98;;
77520;SDS011;66633;47.628;19.158;2023-02-12T08:24:43;15.40;;;7.53;;
77520;SDS011;66633;47.628;19.158;2023-02-12T08:27:08;16.88;;;8.90;;
77520;SDS011;66633;47.628;19.158;2023-02-12T08:29:33;14.87;;;7.47;;
77520;SDS011;66633;47.628;19.158;2023-02-12T08:31:59;17.30;;;9.13;;
77520;SDS011;66633;47.628;19.158;2023-02-12T08:34:26;14.77;;;7.65;;
77520;SDS011;66633;47.628;19.158;2023-02-12T08:36:52;16.48;;;9.10;;
77520;SDS011;66633;47.628;19.158;2023-02-12T08:39:19;13.38;;;7.28;;
77520;SDS011;66633;47.628;19.158;2023-02-12T08:41:45;15.55;;;8.27;;
77520;SDS011;66633;47.628;19.158;2023-02-12T08:44:10;16.85;;;9.30;;
77520;SDS011;66633;47.628;19.158;2023-02-12T08:46:37;24.40;;;11.80;;
77520;SDS011;66633;47.628;19.158;2023-02-12T08:49:07;20.30;;;9.48;;
77520;SDS011;66633;47.628;19.158;2023-02-12T08:52:07;12.77;;;6.82;;
77520;SDS011;66633;47.628;19.158;2023-02-12T08:54:32;40.37;;;17.00;;
77520;SDS011;66633;47.628;19.158;2023-02-12T08:56:59;32.10;;;15.75;;
77520;SDS011;66633;47.628;19.158;2023-02-12T08:59:24;16.80;;;7.70;;
77520;SDS011;66633;47.628;19.158;2023-02-12T09:01:50;12.17;;;6.67;;
77520;SDS011;66633;47.628;19.158;2023-02-12T09:04:17;15.57;;;8.02;;
77520;SDS011;66633;47.628;19.158;2023-02-12T09:06:43;13.18;;;7.57;;
77520;SDS011;66633;47.628;19.158;2023-02-12T09:09:08;17.23;;;8.77;;
77520;SDS011;66633;47.628;19.158;2023-02-12T09:11:34;12.50;;;7.25;;
77520;SDS011;66633;47.628;19.158;2023-02-12T09:14:03;16.75;;;8.45;;
77520;SDS011;66633;47.628;19.158;2023-02-12T09:16:30;15.77;;;7.88;;
77520;SDS011;66633;47.628;19.158;2023-02-12T09:18:55;17.52;;;9.63;;
77520;SDS011;66633;47.628;19.158;2023-02-12T09:21:21;17.45;;;10.00;;
77520;SDS011;66633;47.628;19.158;2023-02-12T09:23:46;15.85;;;7.95;;
77520;SDS011;66633;47.628;19.158;2023-02-12T09:26:13;24.10;;;11.70;;
77520;SDS011;66633;47.628;19.158;2023-02-12T09:28:39;31.17;;;23.13;;
77520;SDS011;66633;47.628;19.158;2023-02-12T09:31:08;9.15;;;4.40;;
77520;SDS011;66633;47.628;19.158;2023-02-12T09:33:34;142.13;;;50.00;;
77520;SDS011;66633;47.628;19.158;2023-02-12T09:36:03;13.50;;;5.53;;
77520;SDS011;66633;47.628;19.158;2023-02-12T09:38:29;12.60;;;5.25;;
77520;SDS011;66633;47.628;19.158;2023-02-12T09:45:54;8.23;;;4.07;;
77520;SDS011;66633;47.628;19.158;2023-02-12T09:50:56;10.82;;;4.50;;
77520;SDS011;66633;47.628;19.158;2023-02-12T09:53:24;24.15;;;10.13;;
77520;SDS011;66633;47.628;19.158;2023-02-12T09:55:52;19.52;;;9.27;;
77520;SDS011;66633;47.628;19.158;2023-02-12T10:00:52;10.95;;;5.18;;
77520;SDS011;66633;47.628;19.158;2023-02-12T10:03:17;11.20;;;5.78;;
77520;SDS011;66633;47.628;19.158;2023-02-12T10:05:50;14.95;;;6.82;;
77520;SDS011;66633;47.628;19.158;2023-02-12T10:10:51;9.40;;;4.47;;
77520;SDS011;66633;47.628;19.158;2023-02-12T10:13:22;29.58;;;13.05;;
77520;SDS011;66633;47.628;19.158;2023-02-12T10:26:08;9.75;;;4.30;;
77520;SDS011;66633;47.628;19.158;2023-02-12T10:28:38;33.03;;;13.52;;
77520;SDS011;66633;47.628;19.158;2023-02-12T10:31:08;9.52;;;4.22;;
77520;SDS011;66633;47.628;19.158;2023-02-12T10:36:48;10.18;;;5.50;;
77520;SDS011;66633;47.628;19.158;2023-02-12T10:38:48;9.35;;;4.40;;
77520;SDS011;66633;47.628;19.158;2023-02-12T10:41:14;14.20;;;6.40;;
77520;SDS011;66633;47.628;19.158;2023-02-12T10:43:40;8.00;;;4.50;;
77520;SDS011;66633;47.628;19.158;2023-02-12T10:46:05;11.52;;;5.55;;
77520;SDS011;66633;47.628;19.158;2023-02-12T10:48:32;10.07;;;4.43;;
77520;SDS011;66633;47.628;19.158;2023-02-12T10:53:25;9.88;;;4.80;;
77520;SDS011;66633;47.628;19.158;2023-02-12T10:58:31;11.25;;;5.25;;
77520;SDS011;66633;47.628;19.158;2023-02-12T11:00:57;8.63;;;4.22;;
77520;SDS011;66633;47.628;19.158;2023-02-12T11:03:26;7.28;;;3.55;;
77520;SDS011;66633;47.628;19.158;2023-02-12T11:05:52;9.13;;;4.30;;
77520;SDS011;66633;47.628;19.158;2023-02-12T11:08:34;14.50;;;7.35;;
77520;SDS011;66633;47.628;19.158;2023-02-12T11:13:29;9.60;;;5.30;;
77520;SDS011;66633;47.628;19.158;2023-02-12T11:15:54;9.52;;;5.10;;
77520;SDS011;66633;47.628;19.158;2023-02-12T11:20:49;9.82;;;4.75;;
77520;SDS011;66633;47.628;19.158;2023-02-12T11:25:57;8.38;;;4.07;;
77520;SDS011;66633;47.628;19.158;2023-02-12T11:28:23;7.45;;;3.45;;
77520;SDS011;66633;47.628;19.158;2023-02-12T11:30:53;9.15;;;4.05;;
77520;SDS011;66633;47.628;19.158;2023-02-12T11:35:51;5.75;;;2.60;;
77520;SDS011;66633;47.628;19.158;2023-02-12T11:38:25;6.22;;;2.78;;
77520;SDS011;66633;47.628;19.158;2023-02-12T11:40:52;7.78;;;4.05;;
77520;SDS011;66633;47.628;19.158;2023-02-12T11:43:18;6.88;;;3.00;;
77520;SDS011;66633;47.628;19.158;2023-02-12T11:45:46;7.05;;;3.40;;
77520;SDS011;66633;47.628;19.158;2023-02-12T11:48:16;18.48;;;10.27;;
77520;SDS011;66633;47.628;19.158;2023-02-12T11:50:45;8.20;;;4.03;;
77520;SDS011;66633;47.628;19.158;2023-02-12T11:53:16;8.02;;;3.75;;
77520;SDS011;66633;47.628;19.158;2023-02-12T11:58:24;7.68;;;3.65;;
77520;SDS011;66633;47.628;19.158;2023-02-12T12:03:37;8.68;;;4.25;;
77520;SDS011;66633;47.628;19.158;2023-02-12T12:08:43;7.50;;;3.90;;
77520;SDS011;66633;47.628;19.158;2023-02-12T12:13:45;10.95;;;5.10;;
77520;SDS011;66633;47.628;19.158;2023-02-12T12:16:36;9.48;;;5.05;;
77520;SDS011;66633;47.628;19.158;2023-02-12T12:19:23;9.65;;;5.15;;
77520;SDS011;66633;47.628;19.158;2023-02-12T12:22:15;15.20;;;7.88;;
77520;SDS011;66633;47.628;19.158;2023-02-12T12:24:44;16.80;;;7.15;;
77520;SDS011;66633;47.628;19.158;2023-02-12T12:27:18;9.55;;;4.60;;
77520;SDS011;66633;47.628;19.158;2023-02-12T12:30:23;10.88;;;4.82;;
77520;SDS011;66633;47.628;19.158;2023-02-12T12:32:53;24.00;;;12.95;;
77520;SDS011;66633;47.628;19.158;2023-02-12T12:35:22;32.42;;;13.20;;
77520;SDS011;66633;47.628;19.158;2023-02-12T12:38:00;25.98;;;9.93;;
77520;SDS011;66633;47.628;19.158;2023-02-12T12:43:13;29.55;;;15.20;;
77520;SDS011;66633;47.628;19.158;2023-02-12T12:51:08;38.00;;;25.67;;
77520;SDS011;66633;47.628;19.158;2023-02-12T13:01:09;90.22;;;53.75;;
77520;SDS011;66633;47.628;19.158;2023-02-12T13:09:15;25.58;;;13.63;;
77520;SDS011;66633;47.628;19.158;2023-02-12T13:11:48;30.55;;;17.23;;
77520;SDS011;66633;47.628;19.158;2023-02-12T13:17:12;37.13;;;19.30;;
77520;SDS011;66633;47.628;19.158;2023-02-12T13:19:51;31.98;;;17.30;;
77520;SDS011;66633;47.628;19.158;2023-02-12T13:22:25;33.10;;;18.73;;
77520;SDS011;66633;47.628;19.158;2023-02-12T13:24:59;31.45;;;17.25;;
77520;SDS011;66633;47.628;19.158;2023-02-12T13:27:33;33.42;;;19.00;;
77520;SDS011;66633;47.628;19.158;2023-02-12T13:30:04;31.83;;;18.02;;
77520;SDS011;66633;47.628;19.158;2023-02-12T13:32:41;30.33;;;18.17;;
77520;SDS011;66633;47.628;19.158;2023-02-12T13:35:13;31.52;;;18.45;;
77520;SDS011;66633;47.628;19.158;2023-02-12T13:37:44;33.92;;;20.13;;
77520;SDS011;66633;47.628;19.158;2023-02-12T13:40:26;35.17;;;20.17;;
77520;SDS011;66633;47.628;19.158;2023-02-12T13:50:56;33.00;;;19.08;;
77520;SDS011;66633;47.628;19.158;2023-02-12T14:01:08;31.35;;;17.98;;
77520;SDS011;66633;47.628;19.158;2023-02-12T14:03:35;40.00;;;21.63;;
77520;SDS011;66633;47.628;19.158;2023-02-12T14:09:08;32.20;;;17.92;;
77520;SDS011;66633;47.628;19.158;2023-02-12T14:11:39;44.65;;;25.85;;
77520;SDS011;66633;47.628;19.158;2023-02-12T14:14:10;32.60;;;19.15;;
77520;SDS011;66633;47.628;19.158;2023-02-12T14:16:37;40.25;;;22.80;;
77520;SDS011;66633;47.628;19.158;2023-02-12T14:21:47;33.55;;;18.90;;
77520;SDS011;66633;47.628;19.158;2023-02-12T14:27:19;46.17;;;24.88;;
77520;SDS011;66633;47.628;19.158;2023-02-12T14:35:33;72.03;;;31.85;;
77520;SDS011;66633;47.628;19.158;2023-02-12T14:38:00;125.22;;;48.33;;
77520;SDS011;66633;47.628;19.158;2023-02-12T14:40:36;99.43;;;38.38;;
77520;SDS011;66633;47.628;19.158;2023-02-12T14:45:49;89.30;;;35.25;;
77520;SDS011;66633;47.628;19.158;2023-02-12T14:51:00;85.78;;;33.63;;
77520;SDS011;66633;47.628;19.158;2023-02-12T14:53:28;59.92;;;27.05;;
77520;SDS011;66633;47.628;19.158;2023-02-12T14:55:55;50.08;;;25.63;;
77520;SDS011;66633;47.628;19.158;2023-02-12T14:58:22;44.70;;;22.15;;
77520;SDS011;66633;47.628;19.158;2023-02-12T15:00:49;44.92;;;21.67;;
77520;SDS011;66633;47.628;19.158;2023-02-12T15:03:18;35.90;;;17.83;;
77520;SDS011;66633;47.628;19.158;2023-02-12T15:13:41;37.00;;;19.10;;
77520;SDS011;66633;47.628;19.158;2023-02-12T15:16:08;40.20;;;21.65;;
77520;SDS011;66633;47.628;19.158;2023-02-12T15:23:41;26.02;;;13.77;;
77520;SDS011;66633;47.628;19.158;2023-02-12T15:26:17;44.63;;;21.30;;
77520;SDS011;66633;47.628;19.158;2023-02-12T15:28:46;27.92;;;14.73;;
77520;SDS011;66633;47.628;19.158;2023-02-12T15:31:16;36.65;;;20.25;;
77520;SDS011;66633;47.628;19.158;2023-02-12T15:33:45;31.40;;;15.88;;
77520;SDS011;66633;47.628;19.158;2023-02-12T15:36:15;28.58;;;16.15;;
77520;SDS011;66633;47.628;19.158;2023-02-12T15:38:42;35.70;;;18.50;;
77520;SDS011;66633;47.628;19.158;2023-02-12T15:41:08;49.65;;;18.55;;
77520;SDS011;66633;47.628;19.158;2023-02-12T15:43:34;47.72;;;17.35;;
77520;SDS011;66633;47.628;19.158;2023-02-12T15:46:05;58.75;;;23.83;;
77520;SDS011;66633;47.628;19.158;2023-02-12T15:48:37;54.90;;;22.58;;
77520;SDS011;66633;47.628;19.158;2023-02-12T15:53:47;39.65;;;18.38;;
77520;SDS011;66633;47.628;19.158;2023-02-12T15:56:14;64.80;;;27.80;;
77520;SDS011;66633;47.628;19.158;2023-02-12T16:01:14;41.97;;;17.38;;
77520;SDS011;66633;47.628;19.158;2023-02-12T16:03:40;38.58;;;16.83;;
77520;SDS011;66633;47.628;19.158;2023-02-12T16:06:12;45.35;;;19.45;;
77520;SDS011;66633;47.628;19.158;2023-02-12T16:08:47;51.30;;;19.67;;
77520;SDS011;66633;47.628;19.158;2023-02-12T16:11:21;38.13;;;14.55;;
77520;SDS011;66633;47.628;19.158;2023-02-12T16:13:51;52.92;;;20.52;;
77520;SDS011;66633;47.628;19.158;2023-02-12T16:16:19;54.33;;;21.52;;
77520;SDS011;66633;47.628;19.158;2023-02-12T16:18:44;50.28;;;20.85;;
77520;SDS011;66633;47.628;19.158;2023-02-12T16:21:18;44.58;;;17.20;;
77520;SDS011;66633;47.628;19.158;2023-02-12T16:23:45;42.63;;;17.83;;
77520;SDS011;66633;47.628;19.158;2023-02-12T16:28:44;46.92;;;19.35;;
77520;SDS011;66633;47.628;19.158;2023-02-12T16:31:11;38.88;;;15.60;;
77520;SDS011;66633;47.628;19.158;2023-02-12T16:41:28;35.42;;;15.73;;
77520;SDS011;66633;47.628;19.158;2023-02-12T16:46:28;35.22;;;15.00;;
77520;SDS011;66633;47.628;19.158;2023-02-12T16:48:55;40.28;;;18.30;;
77520;SDS011;66633;47.628;19.158;2023-02-12T16:51:32;40.65;;;18.73;;
77520;SDS011;66633;47.628;19.158;2023-02-12T16:54:01;52.67;;;23.83;;
77520;SDS011;66633;47.628;19.158;2023-02-12T16:56:31;29.73;;;14.77;;
77520;SDS011;66633;47.628;19.158;2023-02-12T16:58:58;42.92;;;18.55;;
77520;SDS011;66633;47.628;19.158;2023-02-12T17:01:25;43.72;;;19.23;;
77520;SDS011;66633;47.628;19.158;2023-02-12T17:04:12;35.50;;;15.52;;
77520;SDS011;66633;47.628;19.158;2023-02-12T17:06:38;30.35;;;14.70;;
77520;SDS011;66633;47.628;19.158;2023-02-12T17:09:04;39.50;;;17.58;;
77520;SDS011;66633;47.628;19.158;2023-02-12T17:11:30;60.05;;;26.33;;
77520;SDS011;66633;47.628;19.158;2023-02-12T17:13:55;48.33;;;21.10;;
77520;SDS011;66633;47.628;19.158;2023-02-12T17:16:21;43.78;;;20.25;;
77520;SDS011;66633;47.628;19.158;2023-02-12T17:18:47;42.35;;;20.88;;
77520;SDS011;66633;47.628;19.158;2023-02-12T17:21:20;44.08;;;20.85;;
77520;SDS011;66633;47.628;19.158;2023-02-12T17:23:46;63.30;;;28.45;;
77520;SDS011;66633;47.628;19.158;2023-02-12T17:26:12;57.47;;;26.63;;
77520;SDS011;66633;47.628;19.158;2023-02-12T17:28:38;46.92;;;21.63;;
77520;SDS011;66633;47.628;19.158;2023-02-12T17:31:06;43.03;;;19.10;;
77520;SDS011;66633;47.628;19.158;2023-02-12T17:33:32;52.83;;;25.35;;
77520;SDS011;66633;47.628;19.158;2023-02-12T17:35:57;50.78;;;23.77;;
77520;SDS011;66633;47.628;19.158;2023-02-12T17:38:23;35.35;;;17.58;;